Greenwood Municipal Airport


Codes: KHFY/
Name: Greenwood Municipal Airport
City: Indianapolis
Country: United States
Elevation: 822 ft.

Photos at Greenwood Municipal Airport


   Photos courtesy of SpottingLog. You can add your own sightings and photos by signing up for a free trial today.



No photos found.

Weather at Greenwood Municipal Airport


Time (UTC)DescriptionTempratureWindCloud coverageVisibilityPressureHumidity
16-Jun-2024 09:00Broken Clouds17°C9 mph, SE83%10000m1016hPa74%
16-Jun-2024 12:00Broken Clouds17°C7 mph, SE81%10000m1017hPa72%
16-Jun-2024 15:00Scattered Clouds22°C9 mph, SE40%10000m1017hPa59%
16-Jun-2024 18:00Few Clouds29°C7 mph, S12%10000m1016hPa47%
16-Jun-2024 21:00Clear Sky31°C9 mph, S6%10000m1014hPa48%
17-Jun-2024 00:00Light Rain28°C4 mph, SW9%10000m1014hPa69%
17-Jun-2024 03:00Few Clouds24°C7 mph, S14%10000m1015hPa86%
17-Jun-2024 06:00Clear Sky23°C7 mph, S7%10000m1015hPa89%
17-Jun-2024 09:00Clear Sky21°C7 mph, S0%10000m1016hPa92%
17-Jun-2024 12:00Clear Sky22°C4 mph, S1%10000m1017hPa85%
17-Jun-2024 15:00Light Rain28°C9 mph, S11%10000m1017hPa63%
17-Jun-2024 18:00Few Clouds32°C9 mph, S16%10000m1016hPa50%
17-Jun-2024 21:00Broken Clouds32°C11 mph, S72%10000m1015hPa51%
18-Jun-2024 00:00Heavy Intensity Rain22°C7 mph, N66%0m1017hPa97%
18-Jun-2024 03:00Moderate Rain23°C7 mph, S100%10000m1018hPa80%
18-Jun-2024 06:00Overcast Clouds23°C7 mph, S100%10000m1018hPa90%
18-Jun-2024 09:00Overcast Clouds22°C7 mph, S100%10000m1018hPa90%
18-Jun-2024 12:00Light Rain22°C7 mph, S100%10000m1019hPa89%
18-Jun-2024 15:00Light Rain25°C9 mph, S100%10000m1020hPa79%
18-Jun-2024 18:00Overcast Clouds30°C7 mph, S97%10000m1019hPa57%
18-Jun-2024 21:00Light Rain28°C7 mph, S83%10000m1018hPa71%
19-Jun-2024 00:00Light Rain27°C7 mph, S90%10000m1019hPa75%
19-Jun-2024 03:00Light Rain24°C4 mph, SW100%10000m1020hPa83%
19-Jun-2024 06:00Overcast Clouds23°C4 mph, S96%10000m1020hPa85%
19-Jun-2024 09:00Overcast Clouds22°C2 mph, S100%10000m1022hPa86%
19-Jun-2024 12:00Light Rain23°C2 mph, SE100%10000m1023hPa85%
19-Jun-2024 15:00Overcast Clouds27°C2 mph, S100%10000m1024hPa72%
19-Jun-2024 18:00Light Rain30°C4 mph, S99%10000m1023hPa50%
19-Jun-2024 21:00Overcast Clouds31°C4 mph, SE87%10000m1022hPa48%
20-Jun-2024 00:00Overcast Clouds29°C2 mph, SW94%10000m1022hPa62%
20-Jun-2024 03:00Overcast Clouds27°C2 mph, NE95%10000m1023hPa65%
20-Jun-2024 06:00Overcast Clouds25°C2 mph, NE98%10000m1023hPa73%
20-Jun-2024 09:00Clear Sky23°C4 mph, E0%10000m1024hPa83%
20-Jun-2024 12:00Few Clouds24°C4 mph, E14%10000m1025hPa76%
20-Jun-2024 15:00Broken Clouds29°C4 mph, E81%10000m1025hPa60%
20-Jun-2024 18:00Overcast Clouds32°C4 mph, SE91%10000m1024hPa47%
20-Jun-2024 21:00Overcast Clouds33°C4 mph, SE90%10000m1022hPa46%
21-Jun-2024 00:00Overcast Clouds30°C4 mph, SE92%10000m1022hPa62%
21-Jun-2024 03:00Overcast Clouds26°C4 mph, S88%10000m1023hPa70%
21-Jun-2024 06:00Overcast Clouds25°C2 mph, NW91%10000m1023hPa74%